KOLV/OLV METAR and TAF weather

Enter ICAO airport designator
Station Type Date Time Source
KOLV METAR 2020/07/11 03:35 UTC NOAA

KOLV 110335Z AUTO 00000KT 10SM 26/22 A2997 RMK A01


Station Type Date Time Source
KOLV Decoded METAR 2020/07/11 03:35 UTC NOAA

Olive Branch, Olive Branch Airport, MS, United States (KOLV) 34-58-44N 089-47-13W
Jul 10, 2020 - 11:35 PM EDT / 2020.07.11 0335 UTC
Wind: Calm:0
Visibility: 10 mile(s):0
Temperature: 78 F (26 C)
Dew Point: 71 F (22 C)
Relative Humidity: 78%
Pressure (altimeter): 29.97 in. Hg (1014 hPa)
ob: KOLV 110335Z AUTO 00000KT 10SM 26/22 A2997 RMK A01
cycle: 3

Station Type Date Time Source
KOLV TAF UTC NOAA

Error!

Example: see airport list